createdAt,value
2022-08-21T00:00:34.846Z,19.20
2022-08-21T00:05:56.991Z,19.20
2022-08-21T00:11:19.779Z,19.10
2022-08-21T00:16:41.965Z,19.10
2022-08-21T00:22:04.289Z,19.10
2022-08-21T00:27:26.460Z,19.00
2022-08-21T00:32:48.665Z,18.90
2022-08-21T00:38:11.206Z,18.90
2022-08-21T00:43:36.142Z,18.90
2022-08-21T00:48:59.393Z,18.70
2022-08-21T00:54:25.612Z,18.60
2022-08-21T00:59:51.984Z,18.40
2022-08-21T01:05:14.850Z,18.40
2022-08-21T01:10:38.443Z,18.40
2022-08-21T01:16:03.745Z,18.50
2022-08-21T01:21:28.624Z,18.40
2022-08-21T01:26:52.428Z,18.30
2022-08-21T01:32:18.443Z,18.30
2022-08-21T01:37:40.844Z,18.20
2022-08-21T01:43:03.952Z,18.20
2022-08-21T01:48:26.581Z,18.20
2022-08-21T01:53:48.842Z,18.20
2022-08-21T01:59:11.651Z,18.10
2022-08-21T02:04:34.099Z,18.20
2022-08-21T02:09:56.236Z,18.20
2022-08-21T02:15:19.699Z,18.20
2022-08-21T02:20:45.587Z,18.20
2022-08-21T02:26:09.467Z,18.10
2022-08-21T02:31:32.346Z,18.00
2022-08-21T02:36:59.501Z,17.90
2022-08-21T02:42:22.351Z,17.90
2022-08-21T02:47:59.247Z,17.90
2022-08-21T02:53:21.841Z,17.90
2022-08-21T02:58:48.058Z,18.10
2022-08-21T03:04:10.185Z,18.10
2022-08-21T03:09:32.346Z,18.10
2022-08-21T03:14:54.501Z,18.00
2022-08-21T03:20:24.755Z,18.20
2022-08-21T03:25:49.340Z,18.10
2022-08-21T03:31:11.527Z,18.20
2022-08-21T03:36:33.732Z,18.20
2022-08-21T03:41:56.190Z,18.30
2022-08-21T03:47:18.859Z,18.30
2022-08-21T03:52:41.012Z,18.30
2022-08-21T03:58:16.528Z,18.40
2022-08-21T04:03:39.462Z,18.40
2022-08-21T04:09:01.901Z,18.50
2022-08-21T04:14:24.231Z,18.60
2022-08-21T04:19:49.407Z,18.70
2022-08-21T04:25:16.404Z,18.70
2022-08-21T04:30:38.767Z,18.90
2022-08-21T04:36:01.000Z,19.10
2022-08-21T04:41:28.295Z,19.20
2022-08-21T04:46:50.600Z,19.20
2022-08-21T04:52:15.262Z,19.30
2022-08-21T04:57:48.713Z,19.30
2022-08-21T05:03:13.282Z,19.40
2022-08-21T05:08:35.522Z,19.50
2022-08-21T05:13:57.662Z,19.70
2022-08-21T05:19:20.066Z,19.90
2022-08-21T05:24:42.205Z,20.00
2022-08-21T05:30:04.958Z,20.10
2022-08-21T05:35:29.001Z,20.40
2022-08-21T05:40:51.197Z,20.10
2022-08-21T05:46:13.440Z,19.90
2022-08-21T05:51:36.285Z,19.80
2022-08-21T05:56:58.608Z,20.00
2022-08-21T06:02:22.537Z,20.20
2022-08-21T06:07:44.920Z,20.20
2022-08-21T06:13:07.077Z,20.20
2022-08-21T06:18:29.211Z,20.50
2022-08-21T06:23:51.498Z,20.60
2022-08-21T06:29:17.391Z,20.80
2022-08-21T06:34:41.455Z,21.10
2022-08-21T06:40:05.742Z,20.80
2022-08-21T06:45:34.803Z,20.70
2022-08-21T06:50:57.079Z,21.00
2022-08-21T06:56:19.479Z,21.30
2022-08-21T07:01:42.252Z,21.30
2022-08-21T07:07:04.538Z,20.80
2022-08-21T07:12:27.153Z,21.20
2022-08-21T07:17:49.261Z,21.40
2022-08-21T07:23:27.111Z,21.50
2022-08-21T07:28:49.651Z,21.80
2022-08-21T07:34:14.774Z,22.00
2022-08-21T07:39:37.652Z,22.20
2022-08-21T07:44:59.836Z,22.30
2022-08-21T07:50:22.158Z,22.30
2022-08-21T07:55:44.319Z,22.40
2022-08-21T08:01:07.737Z,21.90
2022-08-21T08:06:30.433Z,22.00
2022-08-21T08:11:52.580Z,22.10
2022-08-21T08:17:14.789Z,22.40
2022-08-21T08:22:39.983Z,22.60
2022-08-21T08:28:02.114Z,22.80
2022-08-21T08:33:24.357Z,23.00
2022-08-21T08:38:47.387Z,23.30
2022-08-21T08:44:09.993Z,23.20
2022-08-21T08:49:39.380Z,23.30
2022-08-21T08:55:07.674Z,23.50
2022-08-21T09:00:32.775Z,23.60
2022-08-21T09:06:08.130Z,23.50
2022-08-21T09:11:41.639Z,23.60
2022-08-21T09:17:19.677Z,23.90
2022-08-21T09:22:57.810Z,24.20
2022-08-21T09:28:21.302Z,23.90
2022-08-21T09:33:44.580Z,23.70
2022-08-21T09:39:09.290Z,23.60
2022-08-21T09:44:40.449Z,23.40
2022-08-21T09:50:13.628Z,23.40
2022-08-21T09:56:09.985Z,23.10
2022-08-21T10:01:32.987Z,23.80
2022-08-21T10:06:56.914Z,23.80
2022-08-21T10:12:30.291Z,23.30
2022-08-21T10:18:18.656Z,23.40
2022-08-21T10:23:51.969Z,23.60
2022-08-21T10:29:30.715Z,23.70
2022-08-21T10:35:22.557Z,23.70
2022-08-21T10:40:56.388Z,23.50
2022-08-21T10:46:19.143Z,23.90
2022-08-21T10:52:07.105Z,23.80
2022-08-21T10:57:48.507Z,22.50
2022-08-21T11:03:30.518Z,22.50
2022-08-21T11:09:00.861Z,22.30
2022-08-21T11:14:50.266Z,22.20
2022-08-21T11:20:18.442Z,22.80
2022-08-21T11:25:59.338Z,23.10
2022-08-21T11:31:30.295Z,23.60
2022-08-21T11:37:10.254Z,23.50
2022-08-21T11:42:46.130Z,23.60
2022-08-21T11:48:27.736Z,24.50
2022-08-21T11:54:00.331Z,25.50
2022-08-21T11:59:35.585Z,26.00
2022-08-21T12:05:08.835Z,26.10
2022-08-21T12:10:47.333Z,26.10
2022-08-21T12:16:17.062Z,26.70
2022-08-21T12:21:51.398Z,26.90
2022-08-21T12:27:26.452Z,26.70
2022-08-21T12:33:07.561Z,26.80
2022-08-21T12:38:52.732Z,26.40
2022-08-21T12:44:25.743Z,25.90
2022-08-21T12:50:12.572Z,25.50
2022-08-21T12:55:35.953Z,25.30
2022-08-21T13:01:18.621Z,25.00
2022-08-21T13:06:46.772Z,24.90
2022-08-21T13:12:10.154Z,24.70
2022-08-21T13:17:36.401Z,24.90
2022-08-21T13:23:03.567Z,24.90
2022-08-21T13:28:35.858Z,25.00
2022-08-21T13:33:58.728Z,25.40
2022-08-21T13:39:22.409Z,25.00
2022-08-21T13:44:48.555Z,24.30
2022-08-21T13:50:21.356Z,24.10
2022-08-21T13:55:44.950Z,24.00
2022-08-21T14:01:21.957Z,23.70
2022-08-21T14:06:44.723Z,23.50
2022-08-21T14:12:31.735Z,23.20
2022-08-21T14:17:54.525Z,22.90
2022-08-21T14:23:27.715Z,22.80
2022-08-21T14:28:50.480Z,22.60
2022-08-21T14:34:19.388Z,22.30
2022-08-21T14:39:45.240Z,22.20
2022-08-21T14:45:29.706Z,22.00
2022-08-21T14:50:57.092Z,21.80
2022-08-21T14:56:22.806Z,21.70
2022-08-21T15:01:45.698Z,21.50
2022-08-21T15:07:08.745Z,21.40
2022-08-21T15:12:31.305Z,21.20
2022-08-21T15:17:54.276Z,21.00
2022-08-21T15:23:17.247Z,20.70
2022-08-21T15:28:40.013Z,20.40
2022-08-21T15:34:03.290Z,19.90
2022-08-21T15:39:30.080Z,19.60
2022-08-21T15:44:56.189Z,19.40
2022-08-21T15:50:19.265Z,19.20
2022-08-21T15:55:42.057Z,19.20
2022-08-21T16:01:04.728Z,19.20
2022-08-21T16:06:37.626Z,18.90
2022-08-21T16:12:02.309Z,18.80
2022-08-21T16:17:30.608Z,18.70
2022-08-21T16:22:55.114Z,18.70
2022-08-21T16:28:19.517Z,18.50
2022-08-21T16:33:46.062Z,18.50
2022-08-21T16:39:09.459Z,18.40
2022-08-21T16:44:35.499Z,18.30
2022-08-21T16:49:59.989Z,18.20
2022-08-21T16:55:22.589Z,18.10
2022-08-21T17:00:45.525Z,17.90
2022-08-21T17:06:09.311Z,17.80
2022-08-21T17:11:38.569Z,17.70
2022-08-21T17:17:03.753Z,17.70
2022-08-21T17:22:26.419Z,17.70
2022-08-21T17:27:49.892Z,17.60
2022-08-21T17:33:17.710Z,17.60
2022-08-21T17:38:49.640Z,17.60
2022-08-21T17:44:18.078Z,17.50
2022-08-21T17:49:42.355Z,17.50
2022-08-21T17:55:08.711Z,17.50
2022-08-21T18:00:32.821Z,17.50
2022-08-21T18:06:06.012Z,17.30
2022-08-21T18:11:40.549Z,17.20
2022-08-21T18:17:09.179Z,17.20
2022-08-21T18:22:35.827Z,17.10
2022-08-21T18:28:09.121Z,17.10
2022-08-21T18:33:48.395Z,17.20
2022-08-21T18:39:36.517Z,17.00
2022-08-21T18:45:04.867Z,17.10
2022-08-21T18:50:29.660Z,16.90
2022-08-21T18:56:04.932Z,16.80
2022-08-21T19:01:29.512Z,16.80
2022-08-21T19:06:52.276Z,16.80
2022-08-21T19:12:22.424Z,16.60
2022-08-21T19:17:50.613Z,16.60
2022-08-21T19:23:16.572Z,16.60
2022-08-21T19:28:44.730Z,16.60
2022-08-21T19:34:17.037Z,16.60
2022-08-21T19:45:21.750Z,16.40
2022-08-21T19:50:45.204Z,16.40
2022-08-21T19:56:12.668Z,16.30
2022-08-21T20:01:44.546Z,16.40
2022-08-21T20:07:08.397Z,16.30
2022-08-21T20:12:31.614Z,16.30
2022-08-21T20:17:54.275Z,16.30
2022-08-21T20:23:18.686Z,16.30
2022-08-21T20:28:53.223Z,16.30
2022-08-21T20:34:17.424Z,16.20
2022-08-21T20:39:40.959Z,16.20
2022-08-21T20:45:08.204Z,16.20
2022-08-21T20:50:37.310Z,16.20
2022-08-21T20:56:03.226Z,16.10
2022-08-21T21:01:29.574Z,16.10
2022-08-21T21:06:58.892Z,16.10
2022-08-21T21:12:29.861Z,16.00
2022-08-21T21:18:05.422Z,16.00
2022-08-21T21:23:40.473Z,16.00
2022-08-21T21:29:29.983Z,16.10
2022-08-21T21:34:52.937Z,16.10
2022-08-21T21:40:31.977Z,16.20
2022-08-21T21:46:18.807Z,16.20
2022-08-21T21:52:00.442Z,16.10
2022-08-21T21:57:59.232Z,16.00
2022-08-21T22:03:29.984Z,16.00
2022-08-21T22:09:02.879Z,16.00
2022-08-21T22:14:48.173Z,16.00
2022-08-21T22:20:36.855Z,16.00
2022-08-21T22:26:11.088Z,16.00
2022-08-21T22:31:34.949Z,16.10
2022-08-21T22:37:05.434Z,16.00
2022-08-21T22:42:28.090Z,16.00
2022-08-21T22:47:52.595Z,16.00
2022-08-21T22:53:24.795Z,16.00
2022-08-21T22:58:57.560Z,16.00
2022-08-21T23:04:23.479Z,16.10
2022-08-21T23:09:48.614Z,16.10
2022-08-21T23:15:18.150Z,16.10
2022-08-21T23:20:56.421Z,16.10
2022-08-21T23:26:26.567Z,16.00
2022-08-21T23:32:16.634Z,16.10
2022-08-21T23:38:09.342Z,16.10
2022-08-21T23:43:50.094Z,16.10
2022-08-21T23:49:35.128Z,16.10
2022-08-21T23:55:18.469Z,16.20
